Time;durP1;ratioP1;P1;durP2;ratioP2;P2;SDS_P1;SDS_P2;PMS_P1;PMS_P2;Temp;Humidity;BMP_temperature;BMP_pressure;BME280_temperature;BME280_humidity;BME280_pressure;Samples;Min_cycle;Max_cycle;Signal;HPM_P1;HPM_P2
2022/11/24 00:01:32;;;;;;;;;;;7.10;99.90;;;;;;5096849;28;19958;-68
2022/11/24 00:03:59;;;;;;;;;;;7.00;99.90;;;;;;5078388;28;20403;-67
2022/11/24 00:06:25;;;;;;;;;;;7.00;99.90;;;;;;5096505;28;19915;-68
2022/11/24 00:08:51;;;;;;;;;;;7.10;99.90;;;;;;5096418;28;19908;-67
2022/11/24 00:11:21;;;;;;;;;;;7.00;99.90;;;;;;5096474;28;19908;-67
2022/11/24 00:13:47;;;;;;;;;;;7.00;99.90;;;;;;5096183;28;19912;-67
2022/11/24 00:16:15;;;;;;;;;;;7.10;99.90;;;;;;5096314;28;20326;-67
2022/11/24 00:18:41;;;;;;;;;;;7.10;99.90;;;;;;5096221;28;20294;-67
2022/11/24 00:21:07;;;;;;;;;;;7.00;99.90;;;;;;5096094;28;19919;-67
2022/11/24 00:23:33;;;;;;;;;;;7.00;99.90;;;;;;5096403;28;19908;-68
2022/11/24 00:26:15;;;;;;;;;;;6.80;99.90;;;;;;5077992;28;20293;-67
2022/11/24 00:28:42;;;;;;;;;;;7.10;99.90;;;;;;5096056;28;19953;-68
2022/11/24 00:31:40;;;;;;;;;;;7.10;99.90;;;;;;5096023;28;20285;-68
2022/11/24 00:34:07;;;;;;;;;;;7.00;99.90;;;;;;5095950;28;19962;-68
2022/11/24 00:36:33;;;;;;;;;;;7.10;99.90;;;;;;5096137;28;19908;-68
2022/11/24 00:39:04;;;;;;;;;;;7.20;99.90;;;;;;5095574;28;20289;-68
2022/11/24 00:41:29;;;;;;;;;;;7.30;99.90;;;;;;5096032;28;19904;-68
2022/11/24 00:43:55;;;;;;;;;;;7.40;99.90;;;;;;5077748;28;20246;-68
2022/11/24 00:46:21;;;;;;;;;;;7.50;99.90;;;;;;5095967;28;19908;-68
2022/11/24 00:48:46;;;;;;;;;;;7.60;99.90;;;;;;5095660;28;20388;-68
2022/11/24 00:51:13;;;;;;;;;;;7.60;99.90;;;;;;5095619;28;19934;-68
2022/11/24 00:53:39;;;;;;;;;;;7.70;99.90;;;;;;5095559;28;19908;-68
2022/11/24 00:56:04;;;;;;;;;;;7.70;99.90;;;;;;5095487;28;19913;-68
2022/11/24 00:58:30;;;;;;;;;;;7.80;99.90;;;;;;5077312;28;19908;-68
2022/11/24 01:01:00;;;;;;;;;;;7.80;99.90;;;;;;5095567;28;19919;-68
2022/11/24 01:03:25;;;;;;;;;;;7.90;99.90;;;;;;5095557;28;20266;-68
2022/11/24 01:05:51;;;;;;;;;;;8.00;99.90;;;;;;5095241;28;19922;-68
2022/11/24 01:08:16;;;;;;;;;;;8.00;99.90;;;;;;5095283;28;19939;-68
2022/11/24 01:10:42;;;;;;;;;;;7.90;99.90;;;;;;5095222;28;19915;-68
2022/11/24 01:13:08;;;;;;;;;;;8.00;99.90;;;;;;5095158;28;19908;-68
2022/11/24 01:15:34;;;;;;;;;;;7.90;99.90;;;;;;5095099;28;20408;-68
2022/11/24 01:17:59;;;;;;;;;;;7.80;99.90;;;;;;5076891;28;19908;-68
2022/11/24 01:20:25;;;;;;;;;;;7.80;99.90;;;;;;5076779;28;20011;-68
2022/11/24 01:22:50;;;;;;;;;;;7.90;99.90;;;;;;5076661;28;19908;-68
2022/11/24 01:25:16;;;;;;;;;;;7.80;99.90;;;;;;5094289;28;20010;-68
2022/11/24 01:27:41;;;;;;;;;;;7.80;99.90;;;;;;5094889;28;19915;-68
2022/11/24 01:30:07;;;;;;;;;;;7.70;99.90;;;;;;5094828;28;20382;-68
2022/11/24 01:32:34;;;;;;;;;;;7.70;99.90;;;;;;5094789;28;19912;-68
2022/11/24 01:35:00;;;;;;;;;;;7.70;99.90;;;;;;5094808;28;19931;-68
2022/11/24 01:37:26;;;;;;;;;;;7.70;99.90;;;;;;5059895;28;20361;-68
2022/11/24 01:39:51;;;;;;;;;;;7.70;99.90;;;;;;5094517;28;19924;-68
2022/11/24 01:42:17;;;;;;;;;;;7.70;99.90;;;;;;5094695;28;19912;-68
2022/11/24 01:44:42;;;;;;;;;;;7.70;99.90;;;;;;5094566;28;19908;-68
2022/11/24 01:49:51;;;;;;;;;;;7.70;99.90;;;;;;5091344;27;19913;-67
2022/11/24 01:52:21;;;;;;;;;;;7.70;99.90;;;;;;5090031;28;19940;-68
2022/11/24 01:54:50;;;;;;;;;;;7.70;99.90;;;;;;5091246;28;20362;-68
2022/11/24 01:57:22;;;;;;;;;;;7.70;99.90;;;;;;5089826;28;19915;-67
2022/11/24 01:59:50;;;;;;;;;;;7.80;99.90;;;;;;5091055;28;19958;-67
2022/11/24 02:02:16;;;;;;;;;;;7.80;99.90;;;;;;5089731;28;20381;-67
2022/11/24 02:04:43;;;;;;;;;;;7.80;99.90;;;;;;5091261;28;20395;-67
2022/11/24 02:07:10;;;;;;;;;;;7.90;99.90;;;;;;5091203;28;20392;-67
2022/11/24 02:09:40;;;;;;;;;;;8.00;99.90;;;;;;5090801;28;19938;-67
2022/11/24 02:12:06;;;;;;;;;;;8.10;99.90;;;;;;5090841;28;20393;-67
2022/11/24 02:14:33;;;;;;;;;;;8.10;99.90;;;;;;5090742;28;19908;-67
2022/11/24 02:16:58;;;;;;;;;;;8.00;99.90;;;;;;5091012;28;20333;-68
2022/11/24 02:19:36;;;;;;;;;;;7.90;99.90;;;;;;5123637;28;19908;-67
2022/11/24 02:22:02;;;;;;;;;;;8.00;99.90;;;;;;5090916;28;20277;-67
2022/11/24 02:24:47;;;;;;;;;;;7.80;99.90;;;;;;5090660;28;19954;-68
2022/11/24 02:27:13;;;;;;;;;;;7.80;99.90;;;;;;5090498;28;19915;-68
2022/11/24 02:29:38;;;;;;;;;;;7.80;99.90;;;;;;5090421;28;20007;-68
2022/11/24 02:32:06;;;;;;;;;;;7.70;99.90;;;;;;5090402;28;19909;-68
2022/11/24 02:34:31;;;;;;;;;;;7.70;99.90;;;;;;5090392;28;19946;-68
2022/11/24 02:36:57;;;;;;;;;;;7.70;99.90;;;;;;5090337;28;19908;-68
2022/11/24 02:39:22;;;;;;;;;;;7.70;99.90;;;;;;5090246;28;20380;-68
2022/11/24 02:41:51;;;;;;;;;;;7.70;99.90;;;;;;5090257;28;19909;-68
2022/11/24 02:44:18;;;;;;;;;;;7.60;99.90;;;;;;5090507;28;20314;-68
2022/11/24 02:46:46;;;;;;;;;;;7.60;99.90;;;;;;5090432;28;19912;-68
2022/11/24 02:49:12;;;;;;;;;;;7.50;99.90;;;;;;5105404;28;20408;-67
2022/11/24 02:51:37;;;;;;;;;;;7.50;99.90;;;;;;5110691;28;19908;-67
2022/11/24 02:54:03;;;;;;;;;;;7.60;99.90;;;;;;5110345;28;19908;-67
2022/11/24 02:56:28;;;;;;;;;;;7.70;99.90;;;;;;5110613;28;20362;-67
2022/11/24 02:58:54;;;;;;;;;;;7.70;99.90;;;;;;5110030;28;19916;-67
2022/11/24 03:01:19;;;;;;;;;;;7.80;99.90;;;;;;5096388;28;19919;-67
2022/11/24 03:03:45;;;;;;;;;;;7.90;99.90;;;;;;5096607;28;19908;-67
2022/11/24 03:06:10;;;;;;;;;;;7.90;99.90;;;;;;5096518;28;19908;-67
2022/11/24 03:08:36;;;;;;;;;;;8.00;99.90;;;;;;5078349;28;20014;-67
2022/11/24 03:11:02;;;;;;;;;;;7.90;99.90;;;;;;5096439;28;19908;-67
2022/11/24 03:13:27;;;;;;;;;;;8.00;99.90;;;;;;5096698;28;20381;-67
2022/11/24 03:15:53;;;;;;;;;;;8.00;99.90;;;;;;5096645;28;19914;-67
2022/11/24 03:18:18;;;;;;;;;;;8.10;99.90;;;;;;5096595;28;20431;-68
2022/11/24 03:20:44;;;;;;;;;;;8.10;99.90;;;;;;5096287;28;19908;-67
2022/11/24 03:23:09;;;;;;;;;;;8.10;99.90;;;;;;5096217;28;19912;-67
2022/11/24 03:25:35;;;;;;;;;;;8.10;99.90;;;;;;5096107;28;19931;-67
2022/11/24 03:28:00;;;;;;;;;;;8.20;99.90;;;;;;5096088;28;20018;-67
2022/11/24 03:30:26;;;;;;;;;;;8.30;99.90;;;;;;5096373;28;19908;-68
2022/11/24 03:32:52;;;;;;;;;;;8.30;99.90;;;;;;5096023;28;19970;-67
2022/11/24 03:35:20;;;;;;;;;;;8.30;99.90;;;;;;5096309;28;19910;-68
2022/11/24 03:37:45;;;;;;;;;;;8.30;99.90;;;;;;5096230;28;20369;-67
2022/11/24 03:40:11;;;;;;;;;;;8.40;99.90;;;;;;5096167;28;19978;-68
2022/11/24 03:42:36;;;;;;;;;;;8.40;99.90;;;;;;5077813;28;19912;-68
2022/11/24 03:45:02;;;;;;;;;;;8.40;99.90;;;;;;5096096;28;19961;-67
2022/11/24 03:47:27;;;;;;;;;;;8.50;99.90;;;;;;5095530;28;20375;-67
2022/11/24 03:49:53;;;;;;;;;;;8.60;99.90;;;;;;5095735;28;19908;-67
2022/11/24 03:52:18;;;;;;;;;;;8.60;99.90;;;;;;5095672;28;19973;-67
2022/11/24 03:54:46;;;;;;;;;;;8.60;99.90;;;;;;5095617;28;19947;-67
2022/11/24 03:57:12;;;;;;;;;;;8.60;99.90;;;;;;5095744;28;19908;-68
2022/11/24 03:59:38;;;;;;;;;;;8.60;99.90;;;;;;5095561;28;20389;-67
2022/11/24 04:02:03;;;;;;;;;;;8.60;99.90;;;;;;5095740;28;19977;-68
2022/11/24 04:04:29;;;;;;;;;;;8.70;99.90;;;;;;5095419;28;19911;-67
2022/11/24 04:06:54;;;;;;;;;;;8.70;99.90;;;;;;5095652;28;19908;-67
2022/11/24 04:09:20;;;;;;;;;;;8.70;99.90;;;;;;5095265;28;19916;-67
2022/11/24 04:12:43;;;;;;;;;;;8.80;99.90;;;;;;5094540;28;19919;-67
2022/11/24 04:14:30;;;;;;;;;;;8.80;99.90;;;;;;5095038;28;19912;-67
2022/11/24 04:16:56;;;;;;;;;;;8.80;99.90;;;;;;5095197;28;20069;-67
2022/11/24 04:19:21;;;;;;;;;;;8.80;99.90;;;;;;5095145;28;19909;-67
2022/11/24 04:21:47;;;;;;;;;;;8.70;99.90;;;;;;5095113;28;19922;-67
2022/11/24 04:24:13;;;;;;;;;;;8.70;99.90;;;;;;5076929;28;19959;-68
2022/11/24 04:26:39;;;;;;;;;;;8.70;99.90;;;;;;5094976;28;19908;-67
2022/11/24 04:29:04;;;;;;;;;;;8.70;99.90;;;;;;5094870;28;19958;-68
2022/11/24 04:31:30;;;;;;;;;;;8.80;99.90;;;;;;5094901;28;19938;-67
2022/11/24 04:33:55;;;;;;;;;;;8.80;99.90;;;;;;5095116;28;19915;-68
2022/11/24 04:36:21;;;;;;;;;;;8.80;99.90;;;;;;5094863;28;19909;-67
2022/11/24 04:38:46;;;;;;;;;;;8.80;99.90;;;;;;5094774;28;20361;-68
2022/11/24 04:41:11;;;;;;;;;;;8.70;99.90;;;;;;5076602;28;20305;-67
2022/11/24 04:43:37;;;;;;;;;;;8.80;99.90;;;;;;5094613;28;19908;-68
2022/11/24 04:46:02;;;;;;;;;;;8.80;99.90;;;;;;5094619;28;19995;-67
2022/11/24 04:48:28;;;;;;;;;;;8.80;99.90;;;;;;5094461;28;19927;-68
2022/11/24 04:50:53;;;;;;;;;;;8.90;99.90;;;;;;5094591;28;19908;-68
2022/11/24 04:53:19;;;;;;;;;;;8.90;99.90;;;;;;5076488;28;19908;-67
2022/11/24 04:55:44;;;;;;;;;;;9.00;99.90;;;;;;5094726;28;19961;-67
2022/11/24 04:58:10;;;;;;;;;;;8.90;99.90;;;;;;5094418;28;19919;-67
2022/11/24 05:00:35;;;;;;;;;;;9.00;99.90;;;;;;5094446;28;20289;-68
2022/11/24 05:03:01;;;;;;;;;;;8.90;99.90;;;;;;5076106;28;20360;-67
2022/11/24 05:05:26;;;;;;;;;;;8.90;99.90;;;;;;5094236;28;19908;-68
2022/11/24 05:07:52;;;;;;;;;;;8.90;99.90;;;;;;5094196;28;19913;-67
2022/11/24 05:10:48;;;;;;;;;;;9.00;99.90;;;;;;5094461;28;19908;-67
2022/11/24 05:13:05;;;;;;;;;;;9.00;99.90;;;;;;5094034;28;19951;-67
2022/11/24 05:15:30;;;;;;;;;;;9.00;99.90;;;;;;5094110;28;19912;-68
2022/11/24 05:17:56;;;;;;;;;;;9.00;99.90;;;;;;5075977;28;20046;-68
2022/11/24 05:20:21;;;;;;;;;;;9.10;99.90;;;;;;5094330;28;19908;-67
2022/11/24 05:22:47;;;;;;;;;;;9.10;99.90;;;;;;5093743;28;20370;-68
2022/11/24 05:25:13;;;;;;;;;;;9.00;99.90;;;;;;5094225;28;19908;-68
2022/11/24 05:27:38;;;;;;;;;;;9.00;99.90;;;;;;5093826;28;19909;-68
2022/11/24 05:30:04;;;;;;;;;;;8.90;99.90;;;;;;5093902;28;19908;-68
2022/11/24 05:32:30;;;;;;;;;;;8.80;99.90;;;;;;5093811;28;19912;-67
2022/11/24 05:34:55;;;;;;;;;;;8.80;99.90;;;;;;5075867;28;19908;-67
2022/11/24 05:37:21;;;;;;;;;;;8.80;99.90;;;;;;5075808;28;19938;-67
2022/11/24 05:39:46;;;;;;;;;;;8.80;99.90;;;;;;5094054;28;19909;-67
2022/11/24 05:42:43;;;;;;;;;;;8.70;99.90;;;;;;5075602;28;20392;-68
2022/11/24 05:44:58;;;;;;;;;;;8.70;99.90;;;;;;5093621;28;19909;-68
2022/11/24 05:47:24;;;;;;;;;;;8.70;99.90;;;;;;5093782;28;19908;-67
2022/11/24 05:49:50;;;;;;;;;;;8.60;99.90;;;;;;5093570;28;19992;-67
2022/11/24 05:52:16;;;;;;;;;;;8.50;99.90;;;;;;5093699;28;20293;-68
2022/11/24 05:54:41;;;;;;;;;;;8.50;99.90;;;;;;5093945;28;19912;-67
2022/11/24 05:57:07;;;;;;;;;;;8.50;99.90;;;;;;5093611;28;20082;-68
2022/11/24 05:59:34;;;;;;;;;;;8.40;99.90;;;;;;5093617;28;19908;-68
2022/11/24 06:01:59;;;;;;;;;;;8.40;99.90;;;;;;5093575;28;19908;-68
2022/11/24 06:04:24;;;;;;;;;;;8.40;99.90;;;;;;5093628;28;19934;-68
2022/11/24 06:06:50;;;;;;;;;;;8.40;99.90;;;;;;5075689;28;20414;-68
2022/11/24 06:09:15;;;;;;;;;;;8.40;99.90;;;;;;5093459;28;19913;-68
2022/11/24 06:11:41;;;;;;;;;;;8.40;99.90;;;;;;5075444;28;19908;-67
2022/11/24 06:14:08;;;;;;;;;;;8.40;99.90;;;;;;5093711;28;19909;-67
2022/11/24 06:16:33;;;;;;;;;;;8.40;99.90;;;;;;5093705;28;19915;-68
2022/11/24 06:18:59;;;;;;;;;;;8.40;99.90;;;;;;5093433;28;19908;-67
2022/11/24 06:21:24;;;;;;;;;;;8.30;99.90;;;;;;5093398;28;20002;-68
2022/11/24 06:23:50;;;;;;;;;;;8.40;99.90;;;;;;5093378;28;19912;-68
2022/11/24 06:26:17;;;;;;;;;;;8.40;99.90;;;;;;5093647;28;19909;-68
2022/11/24 06:28:42;;;;;;;;;;;8.40;99.90;;;;;;5093547;28;20003;-68
2022/11/24 06:31:08;;;;;;;;;;;8.40;99.90;;;;;;5093273;28;20000;-68
2022/11/24 06:33:35;;;;;;;;;;;8.30;99.90;;;;;;5093344;28;19908;-68
2022/11/24 06:36:01;;;;;;;;;;;8.30;99.90;;;;;;5096067;28;20396;-68
2022/11/24 06:38:27;;;;;;;;;;;8.30;99.90;;;;;;5097341;28;19912;-68
2022/11/24 06:41:02;;;;;;;;;;;8.20;99.90;;;;;;5097270;28;19908;-68
2022/11/24 06:43:28;;;;;;;;;;;8.20;99.90;;;;;;5097232;28;19908;-68
2022/11/24 06:45:54;;;;;;;;;;;8.20;99.90;;;;;;5097006;28;19944;-68
2022/11/24 06:48:20;;;;;;;;;;;8.20;99.90;;;;;;5096366;28;20459;-68
2022/11/24 06:50:45;;;;;;;;;;;8.20;99.90;;;;;;5096846;28;19908;-68
2022/11/24 06:53:11;;;;;;;;;;;8.20;99.90;;;;;;5097067;28;19915;-68
2022/11/24 06:55:37;;;;;;;;;;;8.20;99.90;;;;;;5096851;28;20288;-68
2022/11/24 06:58:03;;;;;;;;;;;8.20;99.90;;;;;;5096719;28;20014;-68
2022/11/24 07:00:30;;;;;;;;;;;8.20;99.90;;;;;;5097848;28;20343;-68
2022/11/24 07:02:57;;;;;;;;;;;8.20;99.90;;;;;;5084530;28;19920;-68
2022/11/24 07:05:22;;;;;;;;;;;8.20;99.90;;;;;;5096535;28;19948;-68
2022/11/24 07:07:48;;;;;;;;;;;8.20;99.90;;;;;;5097369;28;19919;-68
2022/11/24 07:10:13;;;;;;;;;;;8.20;99.90;;;;;;5095652;28;19912;-68
2022/11/24 07:12:39;;;;;;;;;;;8.20;99.90;;;;;;5096489;28;19991;-68
2022/11/24 07:15:04;;;;;;;;;;;8.30;99.90;;;;;;5094874;28;19913;-68
2022/11/24 07:17:30;;;;;;;;;;;8.30;99.90;;;;;;5082662;28;19967;-68
2022/11/24 07:19:55;;;;;;;;;;;8.40;99.90;;;;;;5077043;28;19912;-68
2022/11/24 07:22:21;;;;;;;;;;;8.40;99.90;;;;;;5096217;28;20262;-68
2022/11/24 07:24:46;;;;;;;;;;;8.40;99.90;;;;;;5095933;28;19935;-68
2022/11/24 07:27:12;;;;;;;;;;;8.40;99.90;;;;;;5094222;28;19931;-68
2022/11/24 07:29:37;;;;;;;;;;;8.40;99.90;;;;;;5092129;28;19927;-68
2022/11/24 07:32:02;;;;;;;;;;;8.50;99.90;;;;;;5086286;28;20375;-68
2022/11/24 07:34:28;;;;;;;;;;;8.40;99.90;;;;;;5080855;28;19985;-68
2022/11/24 07:36:53;;;;;;;;;;;8.50;99.90;;;;;;5086269;28;20004;-68
2022/11/24 07:39:19;;;;;;;;;;;8.50;99.90;;;;;;5085557;28;19924;-68
2022/11/24 07:41:44;;;;;;;;;;;8.60;99.90;;;;;;5096018;28;19958;-68
2022/11/24 07:44:10;;;;;;;;;;;8.60;99.90;;;;;;5093705;28;20392;-68
2022/11/24 07:46:35;;;;;;;;;;;8.60;99.90;;;;;;5110445;28;20289;-68
2022/11/24 07:49:01;;;;;;;;;;;8.70;99.90;;;;;;5106534;28;19973;-67
2022/11/24 07:51:26;;;;;;;;;;;8.70;99.90;;;;;;5110227;28;20324;-68
2022/11/24 07:53:51;;;;;;;;;;;8.80;99.90;;;;;;5097125;28;20010;-68
2022/11/24 07:56:17;;;;;;;;;;;8.80;99.90;;;;;;5078357;28;19908;-68
2022/11/24 07:58:42;;;;;;;;;;;8.90;99.90;;;;;;5111963;28;19952;-68
2022/11/24 08:01:14;;;;;;;;;;;8.90;99.90;;;;;;5095181;28;19912;-68
2022/11/24 08:03:39;;;;;;;;;;;8.90;99.90;;;;;;5118444;27;19919;-68
2022/11/24 08:06:05;;;;;;;;;;;9.00;99.90;;;;;;5093113;28;20573;-68
2022/11/24 08:08:32;;;;;;;;;;;9.10;99.90;;;;;;5099154;28;19961;-68
2022/11/24 08:10:57;;;;;;;;;;;9.10;99.90;;;;;;5093774;28;20388;-68
2022/11/24 08:13:23;;;;;;;;;;;9.10;99.90;;;;;;5093115;28;20580;-68
2022/11/24 08:15:48;;;;;;;;;;;9.20;99.90;;;;;;5097951;28;19912;-68
2022/11/24 08:18:14;;;;;;;;;;;9.20;99.90;;;;;;5101222;28;19962;-68
2022/11/24 08:20:39;;;;;;;;;;;9.20;99.90;;;;;;5094776;28;19912;-68
2022/11/24 08:23:04;;;;;;;;;;;9.20;99.90;;;;;;5095259;28;19927;-68
2022/11/24 08:25:31;;;;;;;;;;;9.30;99.90;;;;;;5096792;28;20016;-68
2022/11/24 08:27:58;;;;;;;;;;;9.30;99.90;;;;;;5103511;28;20010;-68
2022/11/24 08:30:24;;;;;;;;;;;9.30;99.90;;;;;;5101702;28;20013;-67
2022/11/24 08:32:49;;;;;;;;;;;9.20;99.90;;;;;;5111365;28;20107;-68
2022/11/24 08:35:15;;;;;;;;;;;9.30;99.90;;;;;;5087938;28;20091;-68
2022/11/24 08:37:40;;;;;;;;;;;9.30;99.90;;;;;;5102285;28;19912;-68
2022/11/24 08:40:06;;;;;;;;;;;9.30;99.90;;;;;;5102689;28;19922;-68
2022/11/24 08:42:32;;;;;;;;;;;9.30;99.90;;;;;;5096482;28;19912;-67
2022/11/24 08:44:57;;;;;;;;;;;9.30;99.90;;;;;;5111149;28;19908;-68
2022/11/24 08:47:23;;;;;;;;;;;9.30;99.90;;;;;;5094754;28;19912;-67
2022/11/24 08:49:48;;;;;;;;;;;9.30;99.90;;;;;;5094721;28;19992;-68
2022/11/24 08:52:15;;;;;;;;;;;9.30;99.90;;;;;;5105892;28;19931;-68
2022/11/24 08:54:43;;;;;;;;;;;9.30;99.90;;;;;;5114537;28;19941;-68
2022/11/24 08:57:09;;;;;;;;;;;9.30;99.90;;;;;;5089945;28;19918;-68
2022/11/24 08:59:34;;;;;;;;;;;9.20;99.90;;;;;;5087764;28;20366;-68
2022/11/24 09:01:59;;;;;;;;;;;9.10;99.90;;;;;;5094190;28;19916;-68
2022/11/24 09:04:25;;;;;;;;;;;9.00;99.90;;;;;;5097702;28;19912;-68
2022/11/24 09:06:50;;;;;;;;;;;9.00;99.90;;;;;;5094824;28;20003;-69
2022/11/24 09:09:16;;;;;;;;;;;9.00;99.90;;;;;;5111269;28;21382;-68
2022/11/24 09:11:42;;;;;;;;;;;9.00;99.90;;;;;;5107779;28;19908;-68
2022/11/24 09:14:07;;;;;;;;;;;9.00;99.90;;;;;;5080296;28;20384;-69
2022/11/24 09:16:33;;;;;;;;;;;9.00;99.90;;;;;;5095835;28;19981;-68
2022/11/24 09:18:59;;;;;;;;;;;9.00;99.90;;;;;;5088897;28;19916;-68
2022/11/24 09:21:25;;;;;;;;;;;9.10;99.90;;;;;;5092617;28;19948;-68
2022/11/24 09:23:52;;;;;;;;;;;9.10;99.90;;;;;;5083990;28;19912;-68
2022/11/24 09:26:20;;;;;;;;;;;9.10;99.90;;;;;;5104237;28;20474;-68
2022/11/24 09:28:46;;;;;;;;;;;9.10;99.90;;;;;;5097775;28;19963;-68
2022/11/24 09:31:13;;;;;;;;;;;9.10;99.90;;;;;;5097837;28;20355;-68
2022/11/24 09:33:39;;;;;;;;;;;9.10;99.90;;;;;;5107107;28;19992;-64
2022/11/24 09:36:05;;;;;;;;;;;9.10;99.90;;;;;;5085785;28;19907;-65
2022/11/24 09:38:31;;;;;;;;;;;9.20;99.90;;;;;;5097908;28;19931;-68
2022/11/24 09:41:06;;;;;;;;;;;9.20;99.90;;;;;;5086301;28;19912;-68
2022/11/24 09:43:40;;;;;;;;;;;9.20;99.90;;;;;;5067336;28;19959;-68
2022/11/24 09:46:10;;;;;;;;;;;9.20;99.90;;;;;;5083344;28;19920;-68
2022/11/24 09:48:38;;;;;;;;;;;9.20;99.90;;;;;;5088331;28;19927;-68
2022/11/24 09:51:04;;;;;;;;;;;9.10;99.90;;;;;;5089146;28;19920;-68
2022/11/24 09:53:33;;;;;;;;;;;9.10;99.90;;;;;;5093172;28;19908;-68
2022/11/24 09:56:01;;;;;;;;;;;9.10;99.90;;;;;;5087238;28;20396;-68
2022/11/24 09:58:36;;;;;;;;;;;9.10;99.90;;;;;;5086907;28;19916;-68
2022/11/24 10:01:04;;;;;;;;;;;9.10;99.90;;;;;;5091129;28;20380;-68
2022/11/24 10:03:32;;;;;;;;;;;9.00;99.90;;;;;;5083623;28;19912;-68
2022/11/24 10:05:59;;;;;;;;;;;9.00;99.90;;;;;;5055922;28;19916;-68
2022/11/24 10:08:44;;;;;;;;;;;9.00;99.90;;;;;;5078386;28;19912;-68
2022/11/24 10:11:13;;;;;;;;;;;8.90;99.90;;;;;;5094756;28;20294;-68
2022/11/24 10:13:50;;;;;;;;;;;8.80;99.90;;;;;;5094051;28;20285;-68
2022/11/24 10:16:40;;;;;;;;;;;8.70;99.90;;;;;;5077506;28;20328;-68
2022/11/24 10:19:17;;;;;;;;;;;8.80;99.90;;;;;;5059232;28;19915;-68
2022/11/24 10:22:02;;;;;;;;;;;8.80;99.90;;;;;;5077233;28;19912;-68
2022/11/24 10:24:48;;;;;;;;;;;8.80;99.90;;;;;;5084823;28;20058;-69
2022/11/24 10:27:16;;;;;;;;;;;8.80;99.90;;;;;;5094701;28;19908;-68
2022/11/24 10:29:42;;;;;;;;;;;8.80;99.90;;;;;;5096782;28;19916;-68
2022/11/24 10:32:27;;;;;;;;;;;8.80;99.90;;;;;;5091087;28;19935;-68
2022/11/24 10:34:56;;;;;;;;;;;8.80;99.90;;;;;;5095871;28;19927;-68
2022/11/24 10:37:31;;;;;;;;;;;8.90;99.90;;;;;;5094087;28;19944;-68
2022/11/24 10:40:06;;;;;;;;;;;8.90;99.90;;;;;;5082097;28;19992;-68
2022/11/24 10:42:35;;;;;;;;;;;8.90;99.90;;;;;;5096937;28;19950;-68
2022/11/24 10:45:18;;;;;;;;;;;9.00;99.90;;;;;;5096834;28;19986;-68
2022/11/24 10:47:44;;;;;;;;;;;9.00;99.90;;;;;;5089554;28;20389;-68
2022/11/24 10:50:20;;;;;;;;;;;9.10;99.90;;;;;;5096565;28;20011;-68
2022/11/24 10:52:50;;;;;;;;;;;9.10;99.90;;;;;;5094708;28;19912;-68
2022/11/24 10:55:15;;;;;;;;;;;9.10;99.90;;;;;;5096857;28;20022;-68
2022/11/24 10:57:41;;;;;;;;;;;9.10;99.90;;;;;;5096574;28;20351;-68
2022/11/24 11:00:25;;;;;;;;;;;9.20;99.90;;;;;;5092458;28;19944;-68
2022/11/24 11:03:08;;;;;;;;;;;9.20;99.90;;;;;;5095733;28;19916;-68
2022/11/24 11:05:40;;;;;;;;;;;9.20;99.90;;;;;;5090882;28;19913;-68
2022/11/24 11:08:14;;;;;;;;;;;9.20;99.90;;;;;;5074458;28;19967;-68
2022/11/24 11:10:40;;;;;;;;;;;9.20;99.90;;;;;;5094953;28;19913;-68
2022/11/24 11:13:22;;;;;;;;;;;9.20;99.90;;;;;;5093035;28;19977;-68
2022/11/24 11:15:48;;;;;;;;;;;9.30;99.90;;;;;;5095096;28;19912;-69
2022/11/24 11:18:15;;;;;;;;;;;9.40;99.90;;;;;;5094215;28;19977;-68
2022/11/24 11:20:47;;;;;;;;;;;9.50;99.90;;;;;;5087032;28;20187;-68
2022/11/24 11:23:14;;;;;;;;;;;9.50;99.90;;;;;;5068896;28;20365;-69
2022/11/24 11:25:40;;;;;;;;;;;9.50;99.90;;;;;;5094212;28;19912;-69
2022/11/24 11:28:24;;;;;;;;;;;9.60;99.90;;;;;;5082345;28;19947;-68
2022/11/24 11:31:05;;;;;;;;;;;9.70;99.90;;;;;;5086903;28;19912;-69
2022/11/24 11:33:31;;;;;;;;;;;9.70;99.90;;;;;;5083385;28;19985;-69
2022/11/24 11:35:57;;;;;;;;;;;9.70;99.90;;;;;;5091525;28;19951;-68
2022/11/24 11:38:26;;;;;;;;;;;9.70;99.90;;;;;;5089615;28;19956;-68
2022/11/24 11:40:52;;;;;;;;;;;9.70;99.90;;;;;;5096136;28;20319;-68
2022/11/24 11:43:24;;;;;;;;;;;9.70;99.90;;;;;;5088220;28;19912;-69
2022/11/24 11:45:58;;;;;;;;;;;9.80;99.90;;;;;;5085577;28;19960;-68
2022/11/24 11:48:28;;;;;;;;;;;9.90;99.90;;;;;;5078731;28;19970;-68
2022/11/24 11:50:59;;;;;;;;;;;9.90;99.90;;;;;;5076460;28;20285;-69
2022/11/24 11:53:35;;;;;;;;;;;10.00;99.90;;;;;;5095488;28;20397;-68
2022/11/24 11:56:14;;;;;;;;;;;10.00;99.90;;;;;;5090429;28;20345;-68
2022/11/24 11:58:49;;;;;;;;;;;10.00;99.90;;;;;;5095337;28;19908;-69
2022/11/24 12:01:35;;;;;;;;;;;10.10;99.90;;;;;;5094072;28;19951;-68
2022/11/24 12:04:20;;;;;;;;;;;10.10;99.90;;;;;;5085940;28;19964;-69
2022/11/24 12:06:49;;;;;;;;;;;10.10;99.90;;;;;;5088443;28;19919;-69
2022/11/24 12:09:21;;;;;;;;;;;10.20;99.90;;;;;;5102754;28;19916;-69
2022/11/24 12:12:06;;;;;;;;;;;10.30;99.90;;;;;;5101000;28;19915;-69
2022/11/24 12:17:20;;;;;;;;;;;10.20;99.90;;;;;;5093685;27;19927;-68
2022/11/24 12:19:51;;;;;;;;;;;10.10;99.90;;;;;;5104840;28;19962;-68
2022/11/24 12:22:27;;;;;;;;;;;10.10;99.90;;;;;;5109322;28;19908;-68
2022/11/24 12:24:58;;;;;;;;;;;10.00;99.90;;;;;;5096092;28;20393;-69
2022/11/24 12:27:30;;;;;;;;;;;10.00;99.90;;;;;;5091312;28;19920;-69
2022/11/24 12:30:12;;;;;;;;;;;10.10;99.90;;;;;;5090228;28;19909;-69
2022/11/24 12:32:46;;;;;;;;;;;10.30;99.90;;;;;;5089108;28;20254;-69
2022/11/24 12:35:32;;;;;;;;;;;10.60;99.90;;;;;;5090310;28;20358;-69
2022/11/24 12:38:09;;;;;;;;;;;10.90;99.90;;;;;;5079678;28;20011;-69
2022/11/24 12:40:54;;;;;;;;;;;11.00;99.90;;;;;;5090478;28;19912;-69
2022/11/24 12:43:26;;;;;;;;;;;11.20;99.90;;;;;;5088212;28;19912;-69
2022/11/24 12:46:11;;;;;;;;;;;11.20;99.90;;;;;;5087951;28;19919;-69
2022/11/24 12:48:42;;;;;;;;;;;11.10;99.90;;;;;;5088324;28;19940;-69
2022/11/24 12:51:13;;;;;;;;;;;10.80;99.90;;;;;;5090988;28;20023;-69
2022/11/24 12:53:39;;;;;;;;;;;10.90;99.90;;;;;;5087289;28;19970;-69
2022/11/24 12:56:06;;;;;;;;;;;11.00;99.90;;;;;;5084718;28;19924;-69
2022/11/24 12:58:38;;;;;;;;;;;11.10;99.90;;;;;;5089434;28;19916;-69
2022/11/24 13:01:10;;;;;;;;;;;11.00;99.90;;;;;;5088365;28;19966;-69
2022/11/24 13:03:43;;;;;;;;;;;11.20;99.90;;;;;;5087450;28;19908;-69
2022/11/24 13:06:20;;;;;;;;;;;11.40;99.90;;;;;;5087185;28;19912;-69
2022/11/24 13:08:46;;;;;;;;;;;11.40;99.90;;;;;;5090349;28;19948;-69
2022/11/24 13:11:25;;;;;;;;;;;11.30;99.90;;;;;;5086533;28;19912;-69
2022/11/24 13:14:10;;;;;;;;;;;11.40;99.90;;;;;;5089382;28;20290;-69
2022/11/24 13:16:46;;;;;;;;;;;11.40;99.90;;;;;;5088744;28;20278;-69
2022/11/24 13:19:15;;;;;;;;;;;11.40;99.90;;;;;;5085385;28;20012;-69
2022/11/24 13:21:49;;;;;;;;;;;11.20;99.90;;;;;;5087270;28;19991;-70
2022/11/24 13:27:14;;;;;;;;;;;10.80;99.90;;;;;;5076790;27;20346;-69
2022/11/24 13:29:41;;;;;;;;;;;10.60;99.90;;;;;;5068235;28;20007;-69
2022/11/24 13:32:10;;;;;;;;;;;10.50;99.90;;;;;;5069402;28;19909;-69
2022/11/24 13:34:54;;;;;;;;;;;10.50;99.90;;;;;;5071830;28;20420;-69
2022/11/24 13:40:21;;;;;;;;;;;10.30;99.90;;;;;;5069548;28;19913;-68
2022/11/24 13:48:20;;;;;;;;;;;10.40;99.90;;;;;;5087948;27;19935;-69
2022/11/24 13:53:47;;;;;;;;;;;10.60;99.90;;;;;;5069324;28;19920;-68
2022/11/24 13:58:52;;;;;;;;;;;10.70;99.90;;;;;;5130424;27;19918;-68
2022/11/24 14:01:18;;;;;;;;;;;10.70;99.90;;;;;;5130408;27;19966;-67
2022/11/24 14:03:48;;;;;;;;;;;10.70;99.90;;;;;;5130383;27;20381;-68
2022/11/24 14:06:24;;;;;;;;;;;10.70;99.90;;;;;;5127866;28;19908;-67
2022/11/24 14:08:50;;;;;;;;;;;10.70;99.90;;;;;;5128749;28;19912;-69
2022/11/24 14:11:16;;;;;;;;;;;10.70;99.90;;;;;;5126290;27;19939;-68
2022/11/24 14:13:41;;;;;;;;;;;10.70;99.90;;;;;;5128729;28;19916;-67
2022/11/24 14:18:47;;;;;;;;;;;10.70;99.90;;;;;;5098324;27;19924;-68
2022/11/24 14:21:32;;;;;;;;;;;10.70;99.90;;;;;;5101317;28;19912;-68
2022/11/24 14:24:02;;;;;;;;;;;10.70;99.90;;;;;;5118313;28;19908;-68
2022/11/24 14:26:31;;;;;;;;;;;10.60;99.90;;;;;;5090474;28;20394;-67
2022/11/24 14:29:06;;;;;;;;;;;10.60;99.90;;;;;;5090887;28;19994;-68
2022/11/24 14:31:32;;;;;;;;;;;10.50;99.90;;;;;;5090571;28;19955;-67
2022/11/24 14:34:18;;;;;;;;;;;10.50;99.90;;;;;;5090834;28;19916;-68
2022/11/24 14:36:43;;;;;;;;;;;10.40;99.90;;;;;;5090346;28;19924;-68
2022/11/24 14:39:10;;;;;;;;;;;10.40;99.90;;;;;;5090236;28;19918;-68
2022/11/24 14:41:36;;;;;;;;;;;10.40;99.90;;;;;;5090642;28;19915;-68
2022/11/24 14:44:03;;;;;;;;;;;10.30;99.90;;;;;;5090796;28;19908;-68
2022/11/24 14:46:29;;;;;;;;;;;10.30;99.90;;;;;;5090379;28;19915;-68
2022/11/24 14:48:55;;;;;;;;;;;10.20;99.90;;;;;;5089528;28;19912;-68
2022/11/24 14:51:22;;;;;;;;;;;10.20;99.90;;;;;;5089970;28;20263;-68
2022/11/24 14:53:50;;;;;;;;;;;10.10;99.90;;;;;;5090201;28;19909;-68
2022/11/24 14:56:35;;;;;;;;;;;10.00;99.90;;;;;;5087515;28;19912;-65
2022/11/24 14:59:01;;;;;;;;;;;10.00;99.90;;;;;;5089938;28;19913;-65
2022/11/24 15:04:24;;;;;;;;;;;9.90;99.90;;;;;;5070667;28;19913;-68